Time;durP1;ratioP1;P1;durP2;ratioP2;P2;SDS_P1;SDS_P2;PMS_P1;PMS_P2;Temp;Humidity;BMP_temperature;BMP_pressure;BME280_temperature;BME280_humidity;BME280_pressure;Samples;Min_cycle;Max_cycle;Signal;HPM_P1;HPM_P2
2022/02/05 00:00:52;;;;;;;8.68;5.78;;;;;;;;;;5047048;28;20077;-72
2022/02/05 00:03:29;;;;;;;5.38;2.55;;;;;;;;;;5046889;28;20052;-73
2022/02/05 00:43:06;;;;;;;1.13;0.20;;;;;;;;;;5046426;28;20046;-74
2022/02/05 00:45:35;;;;;;;0.28;0.10;;;;;;;;;;5045892;28;20037;-73
2022/02/05 00:48:02;;;;;;;0.30;0.20;;;;;;;;;;5046145;28;20044;-74
2022/02/05 00:50:30;;;;;;;2.47;0.20;;;;;;;;;;5028627;28;20021;-74
2022/02/05 00:53:00;;;;;;;0.10;0.10;;;;;;;;;;5028251;28;20064;-74
2022/02/05 00:55:30;;;;;;;1.20;0.10;;;;;;;;;;5060747;28;20083;-74
2022/02/05 00:58:02;;;;;;;1.00;0.13;;;;;;;;;;5060691;28;20031;-73
2022/02/05 01:00:27;;;;;;;0.20;0.20;;;;;;;;;;5046000;28;20029;-74
2022/02/05 01:02:53;;;;;;;0.20;0.20;;;;;;;;;;5028561;28;20031;-74
2022/02/05 01:05:20;;;;;;;0.43;0.10;;;;;;;;;;5045830;28;20040;-74
2022/02/05 01:07:45;;;;;;;0.30;0.30;;;;;;;;;;5027854;28;20057;-74
2022/02/05 01:10:15;;;;;;;1.27;0.20;;;;;;;;;;5045507;28;20029;-74
2022/02/05 01:12:46;;;;;;;1.20;0.30;;;;;;;;;;5028317;28;20061;-73
2022/02/05 01:15:12;;;;;;;2.60;0.22;;;;;;;;;;5045404;28;20057;-74
2022/02/05 01:17:44;;;;;;;0.75;0.28;;;;;;;;;;5060717;28;20484;-74
2022/02/05 01:20:49;;;;;;;2.08;0.40;;;;;;;;;;5045488;28;20029;-74
2022/02/05 01:23:11;;;;;;;1.55;0.40;;;;;;;;;;5044734;28;20034;-75
2022/02/05 01:25:42;;;;;;;2.78;0.30;;;;;;;;;;5045215;28;20028;-75
2022/02/05 01:28:16;;;;;;;2.35;0.50;;;;;;;;;;5027297;28;20032;-74
2022/02/05 01:30:46;;;;;;;;;;;;;;;;;;5045859;28;20029;-75
2022/02/05 01:54:35;;;;;;;3.60;0.30;;;;;;;;;;5044905;28;20029;-75
2022/02/05 01:57:18;;;;;;;1.48;0.30;;;;;;;;;;5044443;28;20401;-75
2022/02/05 02:05:36;;;;;;;5.55;0.57;;;;;;;;;;4989747;28;20052;-75
2022/02/05 02:11:14;;;;;;;1.80;0.47;;;;;;;;;;5044643;28;20064;-76
2022/02/05 02:13:56;;;;;;;4.20;0.20;;;;;;;;;;5042638;28;20041;-76
2022/02/05 02:19:10;;;;;;;1.00;0.40;;;;;;;;;;5044648;28;20040;-76
2022/02/05 02:21:52;;;;;;;2.85;0.30;;;;;;;;;;5026682;28;20017;-75
2022/02/05 02:24:35;;;;;;;5.28;0.88;;;;;;;;;;5026495;28;20029;-76
2022/02/05 02:29:42;;;;;;;1.52;0.60;;;;;;;;;;5044197;28;20238;-76
2022/02/05 02:32:08;;;;;;;3.55;0.63;;;;;;;;;;5026558;28;20036;-77
2022/02/05 02:34:39;;;;;;;2.47;0.50;;;;;;;;;;5026706;28;20021;-76
2022/02/05 02:37:15;;;;;;;3.40;0.68;;;;;;;;;;5044020;28;20073;-76
2022/02/05 02:40:03;;;;;;;7.10;0.60;;;;;;;;;;5043784;28;20382;-75
2022/02/05 02:42:27;;;;;;;5.25;1.20;;;;;;;;;;5043245;28;20033;-75
2022/02/05 02:44:53;;;;;;;5.30;0.70;;;;;;;;;;5026297;28;20077;-76
2022/02/05 02:47:18;;;;;;;2.03;0.57;;;;;;;;;;5044333;28;20121;-76
2022/02/05 02:57:54;;;;;;;1.40;0.45;;;;;;;;;;5043540;28;20044;-76
2022/02/05 03:00:22;;;;;;;5.43;0.70;;;;;;;;;;5058776;28;20053;-75
2022/02/05 03:02:50;;;;;;;2.50;0.40;;;;;;;;;;5026324;28;20574;-75
2022/02/05 03:05:15;;;;;;;2.47;0.73;;;;;;;;;;5043766;28;20029;-75
2022/02/05 03:07:41;;;;;;;6.70;1.38;;;;;;;;;;5026282;28;20035;-76
2022/02/05 03:10:07;;;;;;;5.30;0.70;;;;;;;;;;5025843;28;20057;-75
2022/02/05 03:12:34;;;;;;;6.75;1.08;;;;;;;;;;5043698;28;20033;-75
2022/02/05 03:15:02;;;;;;;4.07;0.73;;;;;;;;;;5043347;28;20037;-75
2022/02/05 03:17:36;;;;;;;7.88;1.02;;;;;;;;;;5058800;28;20101;-75
2022/02/05 03:20:02;;;;;;;6.03;1.50;;;;;;;;;;5043310;28;20076;-74
2022/02/05 03:22:28;;;;;;;9.60;1.27;;;;;;;;;;5043460;28;20037;-75
2022/02/05 03:24:53;;;;;;;5.95;0.98;;;;;;;;;;5058235;28;20028;-75
2022/02/05 03:27:21;;;;;;;6.50;1.13;;;;;;;;;;5043016;28;20049;-75
2022/02/05 03:29:50;;;;;;;7.95;1.40;;;;;;;;;;5042687;28;20044;-75
2022/02/05 03:32:18;;;;;;;4.57;0.82;;;;;;;;;;5042846;28;20495;-75
2022/02/05 03:34:51;;;;;;;6.97;1.20;;;;;;;;;;5043041;28;20021;-76
2022/02/05 03:37:19;;;;;;;7.50;1.13;;;;;;;;;;5043158;28;20045;-76
2022/02/05 03:39:45;;;;;;;11.02;1.90;;;;;;;;;;5043072;28;20320;-76
2022/02/05 03:42:10;;;;;;;3.78;0.98;;;;;;;;;;5025438;28;20030;-76
2022/02/05 03:44:39;;;;;;;4.32;1.00;;;;;;;;;;5043276;28;20033;-76
2022/02/05 03:47:07;;;;;;;8.93;1.58;;;;;;;;;;5024865;28;20064;-76
2022/02/05 03:49:33;;;;;;;10.85;1.35;;;;;;;;;;5043055;28;20277;-76
2022/02/05 03:52:01;;;;;;;7.85;1.67;;;;;;;;;;5025110;28;20032;-75
2022/02/05 03:54:29;;;;;;;6.45;1.30;;;;;;;;;;5024884;28;20029;-75
2022/02/05 03:56:57;;;;;;;4.22;1.15;;;;;;;;;;5057756;28;20057;-75
2022/02/05 03:59:25;;;;;;;8.77;1.40;;;;;;;;;;5042805;28;20088;-76
2022/02/05 04:01:53;;;;;;;7.50;1.58;;;;;;;;;;5042656;28;20484;-75
2022/02/05 04:04:19;;;;;;;11.70;1.60;;;;;;;;;;5043055;28;20026;-75
2022/02/05 04:06:45;;;;;;;10.10;1.45;;;;;;;;;;5042830;28;20041;-75
2022/02/05 04:09:25;;;;;;;10.73;1.20;;;;;;;;;;5024889;28;20022;-75
2022/02/05 04:17:33;;;;;;;6.60;1.13;;;;;;;;;;5042981;28;20106;-75
2022/02/05 04:19:59;;;;;;;6.57;1.50;;;;;;;;;;5024492;28;20029;-75
2022/02/05 04:22:25;;;;;;;8.55;1.60;;;;;;;;;;5024659;28;20036;-75
2022/02/05 04:24:50;;;;;;;14.88;2.10;;;;;;;;;;5042190;28;20037;-75
2022/02/05 04:27:18;;;;;;;9.35;1.58;;;;;;;;;;5042544;28;20029;-76
2022/02/05 04:29:46;;;;;;;8.00;1.23;;;;;;;;;;5024514;28;20038;-76
2022/02/05 04:32:13;;;;;;;9.10;1.83;;;;;;;;;;5028165;28;20029;-75
2022/02/05 04:34:42;;;;;;;5.70;1.23;;;;;;;;;;5046313;28;20087;-74
2022/02/05 04:37:08;;;;;;;8.45;1.33;;;;;;;;;;5027913;28;20041;-75
2022/02/05 04:39:41;;;;;;;9.27;2.03;;;;;;;;;;5028291;28;20380;-75
2022/02/05 04:42:16;;;;;;;8.50;1.85;;;;;;;;;;5028159;28;20041;-74
2022/02/05 04:57:56;;;;;;;10.02;1.25;;;;;;;;;;5045856;28;20579;-74
2022/02/05 05:03:21;;;;;;;7.03;0.80;;;;;;;;;;5046210;28;20047;-74
2022/02/05 05:08:44;;;;;;;14.77;1.60;;;;;;;;;;5045580;28;20056;-74
2022/02/05 05:19:26;;;;;;;6.60;1.10;;;;;;;;;;5045641;28;20041;-73
2022/02/05 05:21:59;;;;;;;7.38;1.10;;;;;;;;;;5027601;28;20029;-73
2022/02/05 05:24:27;;;;;;;8.52;1.20;;;;;;;;;;5027629;28;20034;-73
2022/02/05 05:26:56;;;;;;;5.95;1.98;;;;;;;;;;5045038;28;20041;-73
2022/02/05 05:29:25;;;;;;;8.00;1.45;;;;;;;;;;5027301;28;20051;-73
2022/02/05 05:31:56;;;;;;;9.98;1.63;;;;;;;;;;5027128;28;20481;-74
2022/02/05 05:34:21;;;;;;;6.10;1.10;;;;;;;;;;5027327;28;20029;-74
2022/02/05 05:36:50;;;;;;;4.70;1.20;;;;;;;;;;5026585;28;20108;-75
2022/02/05 05:39:20;;;;;;;9.57;1.20;;;;;;;;;;5027042;28;20060;-74
2022/02/05 05:41:49;;;;;;;9.90;1.50;;;;;;;;;;5026838;28;20059;-75
2022/02/05 05:50:00;;;;;;;7.25;0.93;;;;;;;;;;5044696;28;20033;-74
2022/02/05 05:52:25;;;;;;;12.77;1.42;;;;;;;;;;5026887;28;20029;-73
2022/02/05 05:54:51;;;;;;;9.40;1.83;;;;;;;;;;5026970;28;20033;-73
2022/02/05 05:57:22;;;;;;;6.35;1.52;;;;;;;;;;5026444;28;20037;-74
2022/02/05 05:59:48;;;;;;;5.63;1.00;;;;;;;;;;5026444;28;20040;-73
2022/02/05 06:02:17;;;;;;;9.95;1.77;;;;;;;;;;5026634;28;20057;-73
2022/02/05 06:04:42;;;;;;;3.97;1.17;;;;;;;;;;5026127;28;20037;-75
2022/02/05 06:07:11;;;;;;;7.10;1.10;;;;;;;;;;5025834;28;20075;-74
2022/02/05 06:09:43;;;;;;;7.80;0.98;;;;;;;;;;5026873;28;20030;-74
2022/02/05 06:12:10;;;;;;;10.07;1.67;;;;;;;;;;5026395;28;20033;-74
2022/02/05 06:14:39;;;;;;;3.78;1.10;;;;;;;;;;5044062;28;20029;-75
2022/02/05 06:17:09;;;;;;;6.97;1.08;;;;;;;;;;5026433;28;20025;-75
2022/02/05 06:19:39;;;;;;;5.90;0.98;;;;;;;;;;5026593;28;20025;-74
2022/02/05 06:22:07;;;;;;;6.15;1.10;;;;;;;;;;5026390;28;20095;-74
2022/02/05 06:24:36;;;;;;;8.32;1.13;;;;;;;;;;5026360;28;20065;-74
2022/02/05 06:27:01;;;;;;;5.53;1.17;;;;;;;;;;5026078;28;20087;-74
2022/02/05 06:29:27;;;;;;;8.50;0.95;;;;;;;;;;5026423;28;20060;-73
2022/02/05 06:31:58;;;;;;;7.05;0.90;;;;;;;;;;5025751;28;20025;-74
2022/02/05 06:34:32;;;;;;;6.68;0.93;;;;;;;;;;5026365;28;20064;-73
2022/02/05 06:36:58;;;;;;;10.05;1.10;;;;;;;;;;5025731;28;20045;-74
2022/02/05 06:39:24;;;;;;;8.15;1.17;;;;;;;;;;5026286;28;20036;-73
2022/02/05 06:41:50;;;;;;;13.60;1.73;;;;;;;;;;5025824;28;20068;-73
2022/02/05 06:44:17;;;;;;;13.00;1.58;;;;;;;;;;5044017;28;20054;-73
2022/02/05 06:46:44;;;;;;;8.02;1.05;;;;;;;;;;5025777;28;20083;-74
2022/02/05 06:49:10;;;;;;;6.63;1.10;;;;;;;;;;5025805;28;20133;-74
2022/02/05 06:51:38;;;;;;;8.98;0.90;;;;;;;;;;5043646;28;20042;-74
2022/02/05 06:54:05;;;;;;;8.02;1.23;;;;;;;;;;5025391;28;20101;-75
2022/02/05 06:56:31;;;;;;;8.13;2.25;;;;;;;;;;5058485;28;20537;-75
2022/02/05 06:58:57;;;;;;;4.18;0.88;;;;;;;;;;5043331;28;20025;-73
2022/02/05 07:01:22;;;;;;;5.57;1.00;;;;;;;;;;5042944;28;20034;-74
2022/02/05 07:03:48;;;;;;;8.98;1.20;;;;;;;;;;5025683;28;20039;-73
2022/02/05 07:06:14;;;;;;;5.82;0.80;;;;;;;;;;5043232;28;20048;-73
2022/02/05 07:08:41;;;;;;;7.68;1.10;;;;;;;;;;5025355;28;20040;-73
2022/02/05 07:11:07;;;;;;;5.45;1.13;;;;;;;;;;5025248;28;20404;-73
2022/02/05 07:13:32;;;;;;;4.72;0.90;;;;;;;;;;5025390;28;20045;-72
2022/02/05 07:16:06;;;;;;;5.32;0.95;;;;;;;;;;5042930;28;20034;-73
2022/02/05 07:21:52;;;;;;;5.63;0.88;;;;;;;;;;5043082;28;20034;-73
2022/02/05 07:24:30;;;;;;;9.82;1.13;;;;;;;;;;5027969;28;20105;-72
2022/02/05 07:29:27;;;;;;;9.73;1.55;;;;;;;;;;5041682;28;20060;-73
2022/02/05 07:31:58;;;;;;;4.60;0.88;;;;;;;;;;5041864;28;20461;-72
2022/02/05 07:34:25;;;;;;;6.13;1.55;;;;;;;;;;5024270;28;20037;-72
2022/02/05 07:36:52;;;;;;;8.93;1.20;;;;;;;;;;5024828;28;20052;-72
2022/02/05 07:39:20;;;;;;;11.48;1.63;;;;;;;;;;5043550;28;20121;-73
2022/02/05 07:41:50;;;;;;;14.40;1.70;;;;;;;;;;5025244;28;20033;-73
2022/02/05 07:44:21;;;;;;;6.65;1.13;;;;;;;;;;5025247;28;20030;-75
2022/02/05 07:46:50;;;;;;;7.82;1.08;;;;;;;;;;5025330;28;20038;-73
2022/02/05 07:49:17;;;;;;;8.48;1.30;;;;;;;;;;5042810;28;20112;-73
2022/02/05 07:51:43;;;;;;;6.57;0.90;;;;;;;;;;5024775;28;20370;-72
2022/02/05 07:54:12;;;;;;;9.43;1.00;;;;;;;;;;5042785;28;20037;-71
2022/02/05 07:56:46;;;;;;;12.57;1.65;;;;;;;;;;5024726;28;20041;-73
2022/02/05 07:59:13;;;;;;;7.50;1.08;;;;;;;;;;5025164;28;20030;-72
2022/02/05 08:01:39;;;;;;;9.65;1.58;;;;;;;;;;5042883;28;20504;-72
2022/02/05 08:04:05;;;;;;;11.07;1.20;;;;;;;;;;5025159;28;20029;-71
2022/02/05 08:06:32;;;;;;;12.68;1.58;;;;;;;;;;5027798;28;20499;-72
2022/02/05 08:09:01;;;;;;;19.17;1.80;;;;;;;;;;5045567;28;20041;-73
2022/02/05 08:11:40;;;;;;;6.25;1.52;;;;;;;;;;5046533;28;20022;-73
2022/02/05 08:14:09;;;;;;;15.75;1.30;;;;;;;;;;5028677;28;20029;-73
2022/02/05 08:16:52;;;;;;;12.23;2.10;;;;;;;;;;5061576;28;20029;-73
2022/02/05 08:19:17;;;;;;;5.93;0.82;;;;;;;;;;5046548;28;20029;-72
2022/02/05 08:21:43;;;;;;;11.18;1.17;;;;;;;;;;5046400;28;20033;-71
2022/02/05 08:24:09;;;;;;;9.35;1.20;;;;;;;;;;5027918;28;20418;-71
2022/02/05 08:26:36;;;;;;;5.65;1.00;;;;;;;;;;5028258;28;20060;-71
2022/02/05 08:29:02;;;;;;;6.88;1.35;;;;;;;;;;5046063;28;20359;-71
2022/02/05 08:31:29;;;;;;;9.65;1.67;;;;;;;;;;5045763;28;20097;-71
2022/02/05 08:34:00;;;;;;;12.23;1.48;;;;;;;;;;5027675;28;20030;-72
2022/02/05 08:36:26;;;;;;;14.98;1.35;;;;;;;;;;5045777;28;20076;-71
2022/02/05 08:38:53;;;;;;;5.20;1.20;;;;;;;;;;5045044;28;20026;-72
2022/02/05 08:41:18;;;;;;;7.07;1.35;;;;;;;;;;5027726;28;20033;-71
2022/02/05 08:43:44;;;;;;;6.60;1.65;;;;;;;;;;5028205;28;20025;-71
2022/02/05 08:46:14;;;;;;;7.15;1.15;;;;;;;;;;5045732;28;20036;-71
2022/02/05 08:48:40;;;;;;;7.68;1.00;;;;;;;;;;5045995;28;20056;-72
2022/02/05 08:51:05;;;;;;;4.60;1.23;;;;;;;;;;5046130;28;20029;-71
2022/02/05 08:53:32;;;;;;;12.20;1.20;;;;;;;;;;5045878;28;20026;-72
2022/02/05 08:56:03;;;;;;;5.35;1.08;;;;;;;;;;5027385;28;20021;-70
2022/02/05 08:58:31;;;;;;;8.00;1.30;;;;;;;;;;5044889;28;20040;-70
2022/02/05 09:06:28;;;;;;;2.95;0.63;;;;;;;;;;5045605;28;20500;-72
2022/02/05 09:09:09;;;;;;;6.25;0.98;;;;;;;;;;5045521;28;20052;-71
2022/02/05 09:11:45;;;;;;;15.73;2.83;;;;;;;;;;5045448;28;20025;-71
2022/02/05 09:16:55;;;;;;;8.02;0.80;;;;;;;;;;5044704;28;20271;-71
2022/02/05 09:19:23;;;;;;;5.22;1.40;;;;;;;;;;5026380;28;20033;-72
2022/02/05 09:21:49;;;;;;;2.88;1.00;;;;;;;;;;5044670;28;20038;-72
2022/02/05 09:24:17;;;;;;;7.90;1.27;;;;;;;;;;5044958;28;20029;-71
2022/02/05 09:26:56;;;;;;;4.18;0.70;;;;;;;;;;5027071;28;20100;-71
2022/02/05 09:29:23;;;;;;;7.15;1.35;;;;;;;;;;5044673;28;20021;-71
2022/02/05 09:31:49;;;;;;;6.32;0.88;;;;;;;;;;5027013;28;20376;-72
2022/02/05 09:34:20;;;;;;;7.22;1.35;;;;;;;;;;5044988;28;20034;-70
2022/02/05 09:36:46;;;;;;;6.30;0.80;;;;;;;;;;5044042;28;20045;-72
2022/02/05 09:39:17;;;;;;;7.93;1.13;;;;;;;;;;5043614;28;20034;-72
2022/02/05 09:41:46;;;;;;;13.88;1.85;;;;;;;;;;5044597;28;20060;-72
2022/02/05 09:44:17;;;;;;;6.68;1.48;;;;;;;;;;5044607;28;20448;-74
2022/02/05 09:46:43;;;;;;;6.05;1.13;;;;;;;;;;5044856;28;20030;-72
2022/02/05 09:49:09;;;;;;;6.93;1.50;;;;;;;;;;5027026;28;20029;-72
2022/02/05 09:51:54;;;;;;;11.13;1.52;;;;;;;;;;5045156;28;20033;-72
2022/02/05 09:54:23;;;;;;;4.75;0.98;;;;;;;;;;5027387;28;20029;-73
2022/02/05 09:56:49;;;;;;;7.50;1.42;;;;;;;;;;5026942;28;20052;-72
2022/02/05 09:59:17;;;;;;;5.72;1.00;;;;;;;;;;5060186;28;20029;-72
2022/02/05 10:01:48;;;;;;;11.45;1.42;;;;;;;;;;5026316;28;20113;-73
2022/02/05 10:04:19;;;;;;;6.20;1.13;;;;;;;;;;5044411;28;20036;-72
2022/02/05 10:06:50;;;;;;;8.45;1.05;;;;;;;;;;5059228;28;20097;-71
2022/02/05 10:09:17;;;;;;;8.52;1.33;;;;;;;;;;5026926;28;20039;-72
2022/02/05 10:11:59;;;;;;;8.60;1.35;;;;;;;;;;5044425;28;20031;-72
2022/02/05 10:14:34;;;;;;;6.47;1.35;;;;;;;;;;5044241;28;20541;-72
2022/02/05 10:17:02;;;;;;;7.00;1.25;;;;;;;;;;5043877;28;20120;-71
2022/02/05 10:19:55;;;;;;;8.75;1.33;;;;;;;;;;5043519;28;20034;-72
2022/02/05 10:22:33;;;;;;;8.30;1.77;;;;;;;;;;5043914;28;20388;-71
2022/02/05 10:25:12;;;;;;;4.85;1.10;;;;;;;;;;5044207;28;20041;-71
2022/02/05 10:27:40;;;;;;;8.25;1.95;;;;;;;;;;5043121;28;20021;-71
2022/02/05 10:30:28;;;;;;;4.85;1.10;;;;;;;;;;5043239;28;20072;-71
2022/02/05 10:33:10;;;;;;;5.85;0.80;;;;;;;;;;5043465;28;20026;-70
2022/02/05 10:36:14;;;;;;;9.88;1.63;;;;;;;;;;5058297;28;20128;-71
2022/02/05 10:44:16;;;;;;;5.50;1.30;;;;;;;;;;5043808;28;20037;-70
2022/02/05 10:46:43;;;;;;;9.73;1.30;;;;;;;;;;5025302;28;20641;-72
2022/02/05 10:49:37;;;;;;;8.73;1.02;;;;;;;;;;5043517;28;20029;-71
2022/02/05 10:52:05;;;;;;;5.78;1.38;;;;;;;;;;5043228;28;20032;-70
2022/02/05 10:54:47;;;;;;;9.27;1.33;;;;;;;;;;5042874;28;20048;-71
2022/02/05 10:57:32;;;;;;;8.35;1.35;;;;;;;;;;5025415;28;20099;-71
2022/02/05 11:08:00;;;;;;;12.98;2.33;;;;;;;;;;5042788;28;20048;-71
2022/02/05 11:18:54;;;;;;;9.63;1.33;;;;;;;;;;5042970;28;20033;-71
2022/02/05 11:21:20;;;;;;;3.17;1.02;;;;;;;;;;5024658;28;20025;-71
2022/02/05 11:23:49;;;;;;;6.15;1.63;;;;;;;;;;5025384;28;20036;-71
2022/02/05 11:26:19;;;;;;;3.92;0.73;;;;;;;;;;5043034;28;20029;-70
2022/02/05 11:28:45;;;;;;;4.68;0.63;;;;;;;;;;5043135;28;20116;-70
2022/02/05 11:31:17;;;;;;;6.95;1.10;;;;;;;;;;5043017;28;20037;-67
2022/02/05 11:33:48;;;;;;;3.83;0.95;;;;;;;;;;5042675;28;20488;-71
2022/02/05 11:38:57;;;;;;;11.07;1.25;;;;;;;;;;5041960;28;20033;-71
2022/02/05 11:41:34;;;;;;;4.32;0.70;;;;;;;;;;5049662;28;20025;-71
2022/02/05 11:44:22;;;;;;;3.65;0.93;;;;;;;;;;5030835;28;20487;-72
2022/02/05 11:47:05;;;;;;;5.60;0.82;;;;;;;;;;5049356;28;20033;-72
2022/02/05 11:49:55;;;;;;;9.80;1.33;;;;;;;;;;5049364;28;20041;-71
2022/02/05 11:52:36;;;;;;;9.75;1.00;;;;;;;;;;5048794;28;20052;-71
2022/02/05 11:55:06;;;;;;;4.30;1.20;;;;;;;;;;5049464;28;20093;-71
2022/02/05 11:57:44;;;;;;;4.15;1.48;;;;;;;;;;5049395;28;20056;-71
2022/02/05 12:00:11;;;;;;;5.15;0.88;;;;;;;;;;5049504;28;20036;-69
2022/02/05 12:02:42;;;;;;;6.57;1.55;;;;;;;;;;5049865;28;20029;-69
2022/02/05 12:05:15;;;;;;;10.45;1.40;;;;;;;;;;5031538;28;20040;-69
2022/02/05 12:08:08;;;;;;;5.25;1.00;;;;;;;;;;5031566;28;20104;-69
2022/02/05 12:10:46;;;;;;;8.27;1.02;;;;;;;;;;5031559;28;20022;-69
2022/02/05 12:13:20;;;;;;;4.32;1.00;;;;;;;;;;5031574;28;20056;-70
2022/02/05 12:15:48;;;;;;;7.30;1.00;;;;;;;;;;5030074;28;20075;-69
2022/02/05 12:18:23;;;;;;;6.28;1.02;;;;;;;;;;5048489;28;20048;-69
2022/02/05 12:20:53;;;;;;;4.40;0.95;;;;;;;;;;5047660;28;20052;-69
2022/02/05 12:26:00;;;;;;;9.27;1.27;;;;;;;;;;5047446;28;20051;-69
2022/02/05 12:28:29;;;;;;;8.63;1.23;;;;;;;;;;5048204;28;20025;-69
2022/02/05 12:30:55;;;;;;;7.85;0.98;;;;;;;;;;5048076;28;20093;-68
2022/02/05 12:33:23;;;;;;;11.18;1.20;;;;;;;;;;5048531;28;20034;-69
2022/02/05 12:35:52;;;;;;;6.90;0.82;;;;;;;;;;5048684;28;20044;-69
2022/02/05 12:38:19;;;;;;;5.28;0.90;;;;;;;;;;5048817;28;20029;-69
2022/02/05 12:40:47;;;;;;;4.90;0.73;;;;;;;;;;5048388;28;20120;-68
2022/02/05 12:43:14;;;;;;;5.38;0.75;;;;;;;;;;5030215;28;20453;-70
2022/02/05 12:45:52;;;;;;;5.95;1.42;;;;;;;;;;5047600;28;20029;-68
2022/02/05 12:48:23;;;;;;;4.75;1.27;;;;;;;;;;5047143;28;20029;-72
2022/02/05 12:50:49;;;;;;;7.55;1.00;;;;;;;;;;5046911;28;20040;-71
2022/02/05 12:53:16;;;;;;;6.55;1.17;;;;;;;;;;5046010;28;20030;-70
2022/02/05 12:55:46;;;;;;;4.82;0.90;;;;;;;;;;5045555;28;20025;-71
2022/02/05 12:58:14;;;;;;;10.38;1.10;;;;;;;;;;5045741;28;20089;-71
2022/02/05 13:00:43;;;;;;;7.88;1.42;;;;;;;;;;5045531;28;20026;-71
2022/02/05 13:03:30;;;;;;;6.47;1.20;;;;;;;;;;5027844;28;20071;-72
2022/02/05 13:06:01;;;;;;;13.93;1.30;;;;;;;;;;5060901;28;20037;-71
2022/02/05 13:08:43;;;;;;;8.30;1.33;;;;;;;;;;5046025;28;20083;-71
2022/02/05 13:11:08;;;;;;;5.65;1.08;;;;;;;;;;5044155;28;20026;-71
2022/02/05 13:13:37;;;;;;;7.10;1.13;;;;;;;;;;5044644;28;20033;-70
2022/02/05 13:16:02;;;;;;;8.32;0.95;;;;;;;;;;5060041;28;20052;-70
2022/02/05 13:18:45;;;;;;;9.23;1.17;;;;;;;;;;5044835;28;20021;-71
2022/02/05 13:26:56;;;;;;;;;;;;;;;;;;5045595;28;20540;-71
2022/02/05 13:29:39;;;;;;;9.13;1.42;;;;;;;;;;5027030;28;19909;-72
2022/02/05 13:34:50;;;;;;;9.45;1.50;;;;;;;;;;5044426;28;20385;-71
2022/02/05 13:37:25;;;;;;;6.18;1.63;;;;;;;;;;5026638;28;20036;-72
2022/02/05 13:40:02;;;;;;;3.92;1.05;;;;;;;;;;5026719;28;20029;-72
2022/02/05 13:42:41;;;;;;;6.05;1.33;;;;;;;;;;5044912;28;20026;-71
2022/02/05 13:45:19;;;;;;;13.88;1.85;;;;;;;;;;5044849;28;20041;-72
2022/02/05 13:47:45;;;;;;;7.60;1.23;;;;;;;;;;5044923;28;20040;-72
2022/02/05 13:50:13;;;;;;;11.43;1.48;;;;;;;;;;5044228;28;20030;-71
2022/02/05 13:52:43;;;;;;;12.18;1.40;;;;;;;;;;5044766;28;20033;-70
2022/02/05 13:55:10;;;;;;;13.77;2.35;;;;;;;;;;5044350;28;20057;-71
2022/02/05 13:57:36;;;;;;;9.38;1.35;;;;;;;;;;5044582;28;20496;-71
2022/02/05 14:00:02;;;;;;;8.73;1.48;;;;;;;;;;5059915;28;20033;-71
2022/02/05 14:02:38;;;;;;;7.72;1.50;;;;;;;;;;5043664;28;20025;-70
2022/02/05 14:05:09;;;;;;;9.07;1.63;;;;;;;;;;5044338;28;20038;-71
2022/02/05 14:08:01;;;;;;;10.70;1.70;;;;;;;;;;5044624;28;20079;-71
2022/02/05 14:10:27;;;;;;;11.02;1.70;;;;;;;;;;5040044;28;20033;-71
2022/02/05 14:12:54;;;;;;;8.05;1.92;;;;;;;;;;5044522;28;20040;-72
2022/02/05 14:15:21;;;;;;;12.20;1.52;;;;;;;;;;5044272;28;20052;-71
2022/02/05 14:17:48;;;;;;;10.77;1.58;;;;;;;;;;5044515;28;20032;-71
2022/02/05 14:20:15;;;;;;;11.38;2.42;;;;;;;;;;5044087;28;20029;-71
2022/02/05 14:22:49;;;;;;;10.00;1.73;;;;;;;;;;5025684;28;20037;-70
2022/02/05 14:25:28;;;;;;;11.25;3.60;;;;;;;;;;5026053;28;20029;-69
2022/02/05 14:28:16;;;;;;;13.65;1.70;;;;;;;;;;5044084;28;20060;-69
2022/02/05 14:30:55;;;;;;;11.30;1.70;;;;;;;;;;5044345;28;20144;-69
2022/02/05 14:33:23;;;;;;;12.05;2.00;;;;;;;;;;5026331;28;20072;-69
2022/02/05 14:41:04;;;;;;;;;;;;;;;;;;5043697;28;20040;-70
2022/02/05 14:43:29;;;;;;;9.18;1.90;;;;;;;;;;5026256;28;19909;-70
2022/02/05 14:45:55;;;;;;;17.98;8.43;;;;;;;;;;5043979;28;20026;-69
2022/02/05 14:48:23;;;;;;;5.80;1.63;;;;;;;;;;5025786;28;20037;-70
2022/02/05 14:50:49;;;;;;;13.02;3.53;;;;;;;;;;5042883;28;20366;-69
2022/02/05 14:53:15;;;;;;;19.23;9.43;;;;;;;;;;5043660;28;20029;-70
2022/02/05 14:55:40;;;;;;;8.50;3.58;;;;;;;;;;5058546;28;20040;-70
2022/02/05 14:58:08;;;;;;;10.10;1.90;;;;;;;;;;5043183;28;20113;-70
2022/02/05 15:00:38;;;;;;;7.72;2.58;;;;;;;;;;5057598;28;20039;-69
2022/02/05 15:03:09;;;;;;;17.02;2.35;;;;;;;;;;5042449;28;20026;-70
2022/02/05 15:05:35;;;;;;;22.38;10.25;;;;;;;;;;5041905;28;20563;-70
2022/02/05 15:08:01;;;;;;;18.73;6.43;;;;;;;;;;5042226;28;20415;-70
2022/02/05 15:10:27;;;;;;;17.60;6.90;;;;;;;;;;5024411;28;20029;-70
2022/02/05 15:12:52;;;;;;;13.23;3.17;;;;;;;;;;5042030;28;20022;-69
2022/02/05 15:15:26;;;;;;;12.63;3.33;;;;;;;;;;5042103;28;20057;-69
2022/02/05 15:17:51;;;;;;;12.65;1.38;;;;;;;;;;5043007;28;20033;-70
2022/02/05 15:20:23;;;;;;;11.00;1.83;;;;;;;;;;5042920;28;20092;-69
2022/02/05 15:22:51;;;;;;;8.48;1.67;;;;;;;;;;5043411;28;20040;-70
2022/02/05 15:25:18;;;;;;;9.30;1.40;;;;;;;;;;5024682;28;20133;-69
2022/02/05 15:27:44;;;;;;;7.43;1.83;;;;;;;;;;5042943;28;20060;-69
2022/02/05 15:30:11;;;;;;;5.30;1.25;;;;;;;;;;5024636;28;20036;-69
2022/02/05 15:32:40;;;;;;;11.00;1.65;;;;;;;;;;5043119;28;20060;-69
2022/02/05 15:35:07;;;;;;;13.68;2.15;;;;;;;;;;5042832;28;20041;-69
2022/02/05 15:37:37;;;;;;;7.20;1.40;;;;;;;;;;5042677;28;20476;-69
2022/02/05 15:45:45;;;;;;;4.90;1.38;;;;;;;;;;5042807;28;20084;-69
2022/02/05 15:48:13;;;;;;;5.50;1.15;;;;;;;;;;5042854;28;20029;-69
2022/02/05 15:50:38;;;;;;;3.30;1.10;;;;;;;;;;5043008;28;20101;-69
2022/02/05 15:53:14;;;;;;;9.55;1.25;;;;;;;;;;5025262;28;20049;-70
2022/02/05 15:55:43;;;;;;;7.85;1.17;;;;;;;;;;5024809;28;20037;-69
2022/02/05 15:58:19;;;;;;;5.43;1.00;;;;;;;;;;5025166;28;20397;-69
2022/02/05 16:00:44;;;;;;;4.30;0.65;;;;;;;;;;5042720;28;20041;-69
2022/02/05 16:03:12;;;;;;;7.07;1.05;;;;;;;;;;5042885;28;20030;-70
2022/02/05 16:05:38;;;;;;;8.80;1.10;;;;;;;;;;5042660;28;20029;-70
2022/02/05 16:08:09;;;;;;;7.60;0.93;;;;;;;;;;5042953;28;20061;-69
2022/02/05 16:10:35;;;;;;;6.20;1.27;;;;;;;;;;5058042;28;20108;-70
2022/02/05 16:13:03;;;;;;;7.85;1.10;;;;;;;;;;5024642;28;20040;-69
2022/02/05 16:15:28;;;;;;;11.27;3.35;;;;;;;;;;5042791;28;20124;-69
2022/02/05 16:17:54;;;;;;;9.15;1.63;;;;;;;;;;5057864;28;20065;-69
2022/02/05 16:20:21;;;;;;;4.05;1.10;;;;;;;;;;5024435;28;20033;-70
2022/02/05 16:22:47;;;;;;;6.97;1.13;;;;;;;;;;5024418;28;20040;-69
2022/02/05 16:25:14;;;;;;;8.18;1.35;;;;;;;;;;5041892;28;20033;-69
2022/02/05 16:27:42;;;;;;;4.57;0.95;;;;;;;;;;5044853;28;20056;-69
2022/02/05 16:30:09;;;;;;;5.70;1.35;;;;;;;;;;5046019;28;20032;-70
2022/02/05 16:32:41;;;;;;;6.53;2.40;;;;;;;;;;5045923;28;20132;-68
2022/02/05 16:35:10;;;;;;;7.13;2.30;;;;;;;;;;5046030;28;20056;-70
2022/02/05 16:37:42;;;;;;;6.25;1.25;;;;;;;;;;5061302;28;20040;-70
2022/02/05 16:40:12;;;;;;;5.22;1.00;;;;;;;;;;5027851;28;20036;-71
2022/02/05 16:42:39;;;;;;;6.88;1.42;;;;;;;;;;5061002;28;20032;-69
2022/02/05 16:45:08;;;;;;;8.57;2.08;;;;;;;;;;5026327;28;20301;-70
2022/02/05 16:47:39;;;;;;;7.05;1.45;;;;;;;;;;5027287;28;20514;-69
2022/02/05 16:50:05;;;;;;;2.42;0.65;;;;;;;;;;5046047;28;20030;-69
2022/02/05 16:52:30;;;;;;;12.00;4.38;;;;;;;;;;5045835;28;20025;-69
2022/02/05 16:54:57;;;;;;;8.13;2.28;;;;;;;;;;5046150;28;20029;-69
2022/02/05 16:57:25;;;;;;;4.88;0.90;;;;;;;;;;5045759;28;20039;-69
2022/02/05 16:59:54;;;;;;;6.32;1.08;;;;;;;;;;5045867;28;20073;-69
2022/02/05 17:02:20;;;;;;;6.65;1.13;;;;;;;;;;5045592;28;20022;-69
2022/02/05 17:04:45;;;;;;;7.00;1.45;;;;;;;;;;5044874;28;20076;-69
2022/02/05 17:07:14;;;;;;;11.55;1.95;;;;;;;;;;5025453;28;20077;-69
2022/02/05 17:09:46;;;;;;;7.00;1.60;;;;;;;;;;5043306;28;20022;-70
2022/02/05 17:12:17;;;;;;;12.77;1.60;;;;;;;;;;5043017;28;20065;-72
2022/02/05 17:14:43;;;;;;;5.68;1.05;;;;;;;;;;5025201;28;20029;-69
2022/02/05 17:17:19;;;;;;;4.78;0.70;;;;;;;;;;5043727;28;20096;-70
2022/02/05 17:19:50;;;;;;;4.53;1.13;;;;;;;;;;5025781;28;20053;-69
2022/02/05 17:22:17;;;;;;;7.75;2.00;;;;;;;;;;5059182;28;20324;-70
2022/02/05 17:24:43;;;;;;;11.25;1.85;;;;;;;;;;5044183;28;20527;-69
2022/02/05 17:27:08;;;;;;;5.47;1.00;;;;;;;;;;5026375;28;20025;-69
2022/02/05 17:29:36;;;;;;;11.68;1.20;;;;;;;;;;5044983;28;20076;-69
2022/02/05 17:32:06;;;;;;;4.65;0.90;;;;;;;;;;5059854;28;20033;-69
2022/02/05 17:34:36;;;;;;;8.10;1.83;;;;;;;;;;5027134;28;20425;-70
2022/02/05 17:37:05;;;;;;;9.13;1.38;;;;;;;;;;5044406;28;20060;-69
2022/02/05 17:39:35;;;;;;;4.88;0.98;;;;;;;;;;5044946;28;20604;-70
2022/02/05 17:42:01;;;;;;;7.40;1.13;;;;;;;;;;5044884;28;20046;-70
2022/02/05 17:44:27;;;;;;;3.50;0.70;;;;;;;;;;5026730;28;20040;-70
2022/02/05 17:46:52;;;;;;;5.50;1.20;;;;;;;;;;5044844;28;20033;-69
2022/02/05 17:49:21;;;;;;;9.75;1.40;;;;;;;;;;5026348;28;20057;-69
2022/02/05 17:51:47;;;;;;;4.28;0.93;;;;;;;;;;5043738;28;20030;-69
2022/02/05 17:54:13;;;;;;;2.53;0.95;;;;;;;;;;5044660;28;20080;-69
2022/02/05 17:56:43;;;;;;;5.57;0.68;;;;;;;;;;5044405;28;20032;-70